Time;durP1;ratioP1;P1;durP2;ratioP2;P2;SDS_P1;SDS_P2;PMS_P1;PMS_P2;Temp;Humidity;BMP_temperature;BMP_pressure;BME280_temperature;BME280_humidity;BME280_pressure;Samples;Min_cycle;Max_cycle;Signal;HPM_P1;HPM_P2
2023/01/15 00:05:02;;;;;;;1.73;1.40;;;9.70;99.90;;;;;;10445677;28;20258;-70
2023/01/15 00:10:03;;;;;;;0.90;0.90;;;9.80;99.90;;;;;;10445833;28;20298;-75
2023/01/15 00:15:03;;;;;;;2.37;1.40;;;9.70;99.90;;;;;;10439538;28;20234;-74
2023/01/15 00:20:04;;;;;;;2.63;1.13;;;9.70;99.90;;;;;;10447120;28;20218;-75
2023/01/15 00:30:25;;;;;;;5.03;1.07;;;9.80;99.90;;;;;;10448529;28;22046;-75
2023/01/15 00:35:25;;;;;;;1.37;1.27;;;9.80;99.90;;;;;;10441823;28;20212;-75
2023/01/15 00:40:26;;;;;;;1.33;1.13;;;9.80;99.90;;;;;;10444338;28;20802;-75
2023/01/15 00:45:28;;;;;;;1.60;1.20;;;9.80;99.90;;;;;;10451046;28;20229;-73
2023/01/15 00:50:28;;;;;;;1.27;0.90;;;9.80;99.90;;;;;;10435912;28;20661;-74
2023/01/15 00:55:29;;;;;;;1.77;1.10;;;9.80;99.90;;;;;;10442614;28;20239;-74
2023/01/15 01:00:29;;;;;;;0.97;0.87;;;9.90;99.90;;;;;;10441662;28;20235;-75
2023/01/15 01:05:31;;;;;;;0.90;0.90;;;9.80;99.90;;;;;;10442901;28;20227;-74
2023/01/15 01:10:32;;;;;;;2.10;0.97;;;9.90;99.90;;;;;;10443938;28;20228;-76
2023/01/15 01:15:33;;;;;;;1.03;0.97;;;9.90;99.90;;;;;;10450834;28;20232;-77
2023/01/15 01:20:36;;;;;;;1.27;1.00;;;9.90;99.90;;;;;;10448749;28;20311;-77
2023/01/15 01:25:37;;;;;;;1.53;1.00;;;9.90;99.90;;;;;;10442024;28;20225;-74
2023/01/15 01:30:38;;;;;;;1.10;1.00;;;9.90;99.90;;;;;;10445437;28;20228;-74
2023/01/15 01:35:38;;;;;;;4.37;1.57;;;9.90;99.90;;;;;;10437996;28;20341;-75
2023/01/15 01:40:40;;;;;;;1.73;1.40;;;9.90;99.90;;;;;;10442483;28;20227;-74
2023/01/15 01:45:40;;;;;;;3.07;1.70;;;9.90;99.90;;;;;;10441860;28;20235;-74
2023/01/15 01:50:42;;;;;;;4.67;2.30;;;9.90;99.90;;;;;;10448876;28;20223;-77
2023/01/15 01:55:47;;;;;;;2.03;1.73;;;9.90;99.90;;;;;;10443372;28;20227;-77
2023/01/15 02:00:50;;;;;;;2.63;1.43;;;9.90;99.90;;;;;;10450313;28;20297;-73
2023/01/15 02:05:57;;;;;;;5.00;3.60;;;9.90;99.90;;;;;;10433526;28;20234;-72
2023/01/15 02:10:58;;;;;;;4.27;3.43;;;9.90;99.90;;;;;;10448575;28;20639;-76
2023/01/15 02:16:06;;;;;;;3.07;2.07;;;9.90;99.90;;;;;;10432021;28;20296;-73
2023/01/15 02:21:32;;;;;;;3.37;2.50;;;9.90;99.90;;;;;;10438160;28;20282;-73
2023/01/15 02:27:03;;;;;;;1.10;1.00;;;9.80;99.90;;;;;;10442645;28;20291;-72
2023/01/15 02:32:09;;;;;;;3.23;0.83;;;9.80;99.90;;;;;;10437287;28;20307;-76
2023/01/15 02:37:14;;;;;;;3.80;1.37;;;9.70;99.90;;;;;;10441190;28;20231;-77
2023/01/15 02:42:16;;;;;;;4.93;1.77;;;9.70;99.90;;;;;;10440399;28;20222;-76
2023/01/15 02:47:21;;;;;;;1.27;0.77;;;9.60;99.90;;;;;;10435983;28;20219;-76
2023/01/15 02:52:26;;;;;;;1.20;1.10;;;9.60;99.90;;;;;;10442179;28;20219;-76
2023/01/15 02:57:31;;;;;;;1.13;0.57;;;9.50;99.90;;;;;;10448975;28;20220;-75
2023/01/15 03:02:38;;;;;;;0.70;0.70;;;9.50;99.90;;;;;;10438112;28;20695;-75
2023/01/15 03:07:49;;;;;;;1.33;0.47;;;9.40;99.90;;;;;;10433129;28;20226;-75
2023/01/15 03:13:03;;;;;;;0.20;0.20;;;9.10;99.90;;;;;;10459802;28;20680;-73
2023/01/15 03:18:07;;;;;;;1.30;0.10;;;9.00;99.90;;;;;;10438956;28;20232;-77
2023/01/15 03:23:11;;;;;;;0.57;0.30;;;8.90;99.90;;;;;;10444529;28;20215;-73
2023/01/15 03:28:16;;;;;;;2.33;0.20;;;8.80;99.90;;;;;;10436444;28;20310;-73
2023/01/15 03:33:17;;;;;;;1.30;0.20;;;8.70;99.90;;;;;;10437669;28;20318;-73
2023/01/15 03:38:21;;;;;;;0.77;0.17;;;8.60;99.90;;;;;;10444772;28;20253;-72
2023/01/15 03:43:39;;;;;;;0.30;0.13;;;8.50;99.90;;;;;;10437210;28;20214;-73
2023/01/15 03:49:03;;;;;;;1.60;0.20;;;8.50;99.90;;;;;;10439115;28;20233;-77
2023/01/15 03:54:10;;;;;;;0.30;0.20;;;8.40;99.90;;;;;;10449506;28;20222;-78
2023/01/15 03:59:17;;;;;;;0.53;0.10;;;8.40;99.90;;;;;;10447664;28;20232;-77
2023/01/15 04:04:17;;;;;;;0.27;0.20;;;8.30;99.90;;;;;;10444849;28;20218;-74
2023/01/15 04:09:19;;;;;;;0.50;0.40;;;8.30;99.90;;;;;;10435828;28;20227;-73
2023/01/15 04:14:19;;;;;;;2.33;1.20;;;8.30;99.90;;;;;;10445875;28;20231;-73
2023/01/15 04:19:20;;;;;;;0.77;0.60;;;8.30;99.90;;;;;;10437490;28;20252;-75
2023/01/15 04:24:20;;;;;;;1.43;0.20;;;8.30;99.90;;;;;;10448936;28;20393;-73
2023/01/15 04:29:25;;;;;;;1.40;0.63;;;8.20;99.90;;;;;;10441359;28;20236;-73
2023/01/15 04:34:27;;;;;;;0.47;0.30;;;8.10;99.90;;;;;;10450287;28;20230;-73
2023/01/15 04:39:27;;;;;;;0.67;0.30;;;8.10;99.90;;;;;;10446770;28;20230;-73
2023/01/15 04:44:28;;;;;;;0.53;0.20;;;8.00;99.90;;;;;;10464273;28;20218;-74
2023/01/15 04:49:28;;;;;;;0.60;0.20;;;8.00;99.90;;;;;;10441844;28;20283;-74
2023/01/15 04:54:29;;;;;;;0.43;0.17;;;7.90;99.90;;;;;;10443581;28;20308;-73
2023/01/15 04:59:30;;;;;;;0.20;0.20;;;7.80;99.90;;;;;;10439932;28;20232;-73
2023/01/15 05:04:30;;;;;;;0.20;0.20;;;7.90;99.90;;;;;;10438264;28;20251;-74
2023/01/15 05:09:31;;;;;;;1.60;0.30;;;7.80;99.90;;;;;;10448412;28;20217;-72
2023/01/15 05:14:32;;;;;;;0.73;0.30;;;7.80;99.90;;;;;;10436216;28;20235;-74
2023/01/15 05:19:32;;;;;;;1.03;0.43;;;7.70;99.90;;;;;;10445025;28;20226;-78
2023/01/15 05:24:33;;;;;;;1.60;0.40;;;7.60;99.90;;;;;;10438754;28;20231;-80
2023/01/15 05:29:34;;;;;;;1.10;0.30;;;7.40;99.90;;;;;;10447433;28;20779;-70
2023/01/15 05:34:35;;;;;;;0.33;0.30;;;7.30;99.90;;;;;;10432040;28;20253;-70
2023/01/15 05:39:36;;;;;;;0.20;0.20;;;7.30;99.90;;;;;;10437176;28;20220;-70
2023/01/15 05:44:36;;;;;;;0.87;0.20;;;7.20;99.90;;;;;;10439390;28;20216;-69
2023/01/15 05:49:37;;;;;;;0.47;0.20;;;7.20;99.90;;;;;;10446839;28;20300;-69
2023/01/15 05:54:37;;;;;;;0.30;0.20;;;7.10;99.90;;;;;;10441577;28;20269;-73
2023/01/15 05:59:38;;;;;;;1.30;0.30;;;7.00;99.90;;;;;;10449690;28;20226;-72
2023/01/15 06:04:42;;;;;;;0.30;0.30;;;6.90;99.90;;;;;;10439473;28;20231;-74
2023/01/15 06:09:43;;;;;;;1.20;0.33;;;6.90;99.90;;;;;;10433380;28;20932;-73
2023/01/15 06:14:44;;;;;;;0.47;0.10;;;6.80;99.90;;;;;;10434276;28;20236;-73
2023/01/15 06:19:44;;;;;;;0.30;0.30;;;6.90;99.90;;;;;;10438144;28;20228;-70
2023/01/15 06:24:45;;;;;;;0.57;0.30;;;6.90;99.90;;;;;;10436006;28;20650;-75
2023/01/15 06:29:46;;;;;;;0.73;0.30;;;6.90;99.90;;;;;;10446458;28;20299;-72
2023/01/15 06:34:46;;;;;;;1.00;0.50;;;6.80;99.90;;;;;;10432655;28;20249;-73
2023/01/15 06:39:47;;;;;;;2.07;0.50;;;6.80;99.90;;;;;;10437463;28;20231;-74
2023/01/15 06:50:07;;;;;;;1.47;0.77;;;7.00;99.90;;;;;;10434440;28;20227;-74
2023/01/15 06:55:08;;;;;;;0.70;0.30;;;7.00;99.90;;;;;;10434283;28;20646;-74
2023/01/15 07:00:10;;;;;;;0.83;0.50;;;7.00;99.90;;;;;;10446627;28;20204;-73
2023/01/15 07:05:11;;;;;;;1.90;0.60;;;7.00;99.90;;;;;;10444820;28;20269;-71
2023/01/15 07:10:11;;;;;;;1.97;0.50;;;7.00;99.90;;;;;;10441328;28;20266;-72
2023/01/15 07:15:12;;;;;;;0.90;0.30;;;6.90;99.90;;;;;;10433523;28;20218;-72
2023/01/15 07:20:12;;;;;;;0.80;0.40;;;6.90;99.90;;;;;;10438849;28;20221;-73
2023/01/15 07:25:13;;;;;;;0.87;0.40;;;6.90;99.90;;;;;;10444455;28;20180;-74
2023/01/15 07:30:14;;;;;;;1.50;0.60;;;6.80;99.90;;;;;;10444695;28;20195;-74
2023/01/15 07:35:15;;;;;;;0.50;0.30;;;6.80;99.90;;;;;;10445324;28;20185;-74
2023/01/15 07:40:17;;;;;;;2.00;0.53;;;6.80;99.90;;;;;;10448430;28;20196;-72
2023/01/15 07:50:37;;;;;;;1.50;0.53;;;6.90;99.90;;;;;;10441344;28;20591;-73
2023/01/15 07:55:38;;;;;;;1.67;0.60;;;6.90;99.90;;;;;;10443821;28;20730;-73
2023/01/15 08:00:38;;;;;;;0.73;0.50;;;6.90;99.90;;;;;;10453267;28;20298;-72
2023/01/15 08:05:39;;;;;;;1.33;0.53;;;6.90;99.90;;;;;;10444226;28;20314;-71
2023/01/15 08:15:11;;;;;;;2.50;0.60;;;6.90;99.90;;;;;;10444849;28;20226;-71
2023/01/15 08:16:00;;;;;;;2.77;0.70;;;6.90;99.90;;;;;;10437310;28;20890;-71
2023/01/15 08:21:01;;;;;;;0.67;0.60;;;6.80;99.90;;;;;;10447112;28;20220;-71
2023/01/15 08:26:01;;;;;;;0.70;0.70;;;6.90;99.90;;;;;;10442841;28;20237;-72
2023/01/15 08:31:05;;;;;;;0.47;0.47;;;6.90;99.90;;;;;;10441650;28;20239;-77
2023/01/15 08:36:08;;;;;;;1.03;0.60;;;7.00;99.90;;;;;;10446939;28;20238;-75
2023/01/15 08:41:09;;;;;;;1.47;0.73;;;7.00;99.90;;;;;;10442054;28;20258;-73
2023/01/15 08:46:10;;;;;;;1.67;0.50;;;7.10;99.90;;;;;;10451728;28;20211;-76
2023/01/15 08:51:11;;;;;;;0.53;0.50;;;7.20;99.90;;;;;;10450727;28;20225;-77
2023/01/15 08:56:14;;;;;;;0.73;0.60;;;7.20;99.90;;;;;;10451017;28;20607;-76
2023/01/15 09:01:14;;;;;;;1.20;0.77;;;7.20;99.90;;;;;;10451742;28;20206;-76
2023/01/15 09:06:15;;;;;;;0.77;0.50;;;7.20;99.90;;;;;;10450694;28;20212;-76
2023/01/15 09:11:16;;;;;;;0.40;0.40;;;7.20;99.90;;;;;;10446783;28;20222;-78
2023/01/15 09:16:17;;;;;;;1.03;0.70;;;7.10;99.90;;;;;;10451498;28;20306;-79
2023/01/15 09:21:17;;;;;;;0.40;0.40;;;7.10;99.90;;;;;;10448759;28;20219;-73
2023/01/15 09:26:31;;;;;;;1.37;0.60;;;7.10;99.90;;;;;;10449933;28;20312;-76
2023/01/15 09:31:32;;;;;;;0.57;0.57;;;7.10;99.90;;;;;;10462784;28;20586;-74
2023/01/15 09:36:34;;;;;;;0.50;0.40;;;7.10;99.90;;;;;;10442323;28;20726;-72
2023/01/15 09:47:07;;;;;;;0.80;0.30;;;7.20;99.90;;;;;;10440899;28;20716;-77
2023/01/15 09:52:26;;;;;;;0.20;0.20;;;7.20;99.90;;;;;;10438158;28;20347;-71
2023/01/15 09:57:28;;;;;;;0.43;0.20;;;7.20;99.90;;;;;;10439257;28;20222;-73
2023/01/15 10:02:36;;;;;;;0.60;0.30;;;7.20;99.90;;;;;;10440614;28;20216;-71
2023/01/15 10:07:40;;;;;;;2.03;0.60;;;7.20;99.90;;;;;;10441349;28;20665;-69
2023/01/15 10:12:44;;;;;;;0.70;0.70;;;7.30;99.90;;;;;;10440513;28;20224;-72
2023/01/15 10:17:46;;;;;;;1.33;0.60;;;7.40;99.90;;;;;;10440131;28;20236;-72
2023/01/15 10:23:18;;;;;;;2.93;0.60;;;7.40;99.90;;;;;;10443135;28;20212;-74
2023/01/15 10:28:27;;;;;;;0.50;0.43;;;7.40;99.90;;;;;;10442066;28;20738;-75
2023/01/15 10:33:45;;;;;;;0.57;0.30;;;7.40;99.90;;;;;;10435887;28;20779;-73
2023/01/15 10:39:21;;;;;;;1.73;0.50;;;7.30;99.90;;;;;;10442851;28;20227;-77
2023/01/15 10:44:46;;;;;;;1.07;0.40;;;7.30;99.90;;;;;;10434891;28;20308;-68
2023/01/15 10:49:49;;;;;;;0.40;0.30;;;7.30;99.90;;;;;;10436255;28;20307;-73
2023/01/15 10:55:00;;;;;;;2.03;0.37;;;7.30;99.90;;;;;;10439193;28;20306;-72
2023/01/15 11:00:01;;;;;;;3.67;0.70;;;7.30;99.90;;;;;;10437498;28;20228;-69
2023/01/15 11:05:03;;;;;;;1.37;0.40;;;7.30;99.90;;;;;;10439652;28;20223;-68
2023/01/15 11:10:12;;;;;;;1.80;0.70;;;7.30;99.90;;;;;;10439716;28;20315;-68
2023/01/15 11:20:44;;;;;;;0.97;0.30;;;7.20;99.90;;;;;;10441905;28;20235;-69
2023/01/15 11:25:50;;;;;;;0.30;0.30;;;7.20;99.90;;;;;;10438210;28;20231;-69
2023/01/15 11:30:54;;;;;;;1.00;0.33;;;7.10;99.90;;;;;;10444913;28;20224;-72
2023/01/15 11:35:57;;;;;;;0.90;0.33;;;7.10;99.90;;;;;;10445043;28;20224;-73
2023/01/15 11:41:00;;;;;;;0.97;0.60;;;7.00;99.90;;;;;;10433982;28;20219;-72
2023/01/15 11:51:21;;;;;;;1.90;0.83;;;7.20;99.90;;;;;;10435870;28;20221;-72
2023/01/15 11:56:25;;;;;;;2.50;0.87;;;7.30;99.90;;;;;;10443536;28;20220;-73
2023/01/15 12:01:34;;;;;;;1.73;0.97;;;7.60;99.90;;;;;;10430719;28;20298;-72
2023/01/15 12:06:38;;;;;;;2.20;1.00;;;7.80;99.90;;;;;;10431467;28;20358;-72
2023/01/15 12:11:50;;;;;;;2.93;0.77;;;7.90;99.90;;;;;;10429985;28;20500;-72
2023/01/15 12:16:59;;;;;;;3.23;0.60;;;7.80;99.90;;;;;;10439680;28;20224;-72
2023/01/15 12:22:05;;;;;;;2.13;0.70;;;7.80;99.90;;;;;;10441701;28;20239;-71
2023/01/15 12:27:18;;;;;;;2.43;0.40;;;7.70;99.90;;;;;;10434958;28;20212;-71
2023/01/15 12:32:31;;;;;;;1.37;0.83;;;7.70;99.90;;;;;;10434387;28;20282;-74
2023/01/15 12:37:43;;;;;;;1.20;0.50;;;7.60;99.90;;;;;;10443862;28;20220;-72
2023/01/15 12:48:36;;;;;;;3.57;0.80;;;7.40;99.90;;;;;;10447510;28;20228;-72
2023/01/15 12:53:43;;;;;;;1.47;0.50;;;7.50;99.90;;;;;;10436871;28;20210;-72
2023/01/15 12:59:21;;;;;;;1.10;0.63;;;7.80;99.90;;;;;;10441158;28;20358;-70
2023/01/15 13:04:49;;;;;;;1.87;0.50;;;7.90;99.90;;;;;;10432006;28;20693;-72
2023/01/15 13:09:58;;;;;;;2.67;0.70;;;8.10;99.90;;;;;;10439617;28;20226;-71
2023/01/15 13:15:01;;;;;;;4.87;0.80;;;8.30;99.90;;;;;;10426964;28;20226;-73
2023/01/15 13:20:16;;;;;;;2.30;0.67;;;8.50;99.90;;;;;;10438650;28;20716;-72
2023/01/15 13:25:28;;;;;;;0.63;0.40;;;8.70;99.90;;;;;;10434438;28;20222;-74
2023/01/15 13:30:52;;;;;;;4.50;0.90;;;8.60;99.90;;;;;;10438544;28;20288;-71
2023/01/15 13:36:01;;;;;;;2.53;0.47;;;8.40;99.90;;;;;;10441257;28;20220;-76
2023/01/15 13:41:07;;;;;;;2.17;0.60;;;8.30;99.90;;;;;;10444449;28;20220;-74
2023/01/15 13:46:12;;;;;;;2.20;0.80;;;8.40;99.90;;;;;;10439842;28;20222;-74
2023/01/15 13:51:24;;;;;;;1.80;0.80;;;8.60;99.90;;;;;;10433159;28;20215;-75
2023/01/15 13:56:28;;;;;;;2.73;0.80;;;8.80;99.90;;;;;;10431153;28;20227;-74
2023/01/15 14:01:28;;;;;;;2.50;0.87;;;9.00;99.90;;;;;;10438179;28;20348;-73
2023/01/15 14:06:36;;;;;;;2.73;0.87;;;8.80;99.90;;;;;;10445302;28;20843;-73
2023/01/15 14:11:58;;;;;;;2.03;0.80;;;8.60;99.90;;;;;;10446518;28;20222;-71
2023/01/15 14:17:23;;;;;;;4.73;1.10;;;8.60;99.90;;;;;;10437855;28;20225;-76
2023/01/15 14:22:42;;;;;;;5.60;1.20;;;8.70;99.90;;;;;;10440955;28;20237;-71
2023/01/15 14:28:03;;;;;;;2.70;0.90;;;8.70;99.90;;;;;;10433343;28;20240;-73
2023/01/15 14:33:21;;;;;;;2.73;0.90;;;8.50;99.90;;;;;;10440129;28;20221;-72
2023/01/15 14:38:25;;;;;;;4.77;1.03;;;8.30;99.90;;;;;;10432954;28;20221;-73
2023/01/15 14:43:34;;;;;;;5.57;1.40;;;8.10;99.90;;;;;;10428146;28;20957;-71
2023/01/15 14:48:38;;;;;;;6.67;1.23;;;8.00;99.90;;;;;;10426613;28;20308;-75
2023/01/15 14:53:48;;;;;;;3.03;1.07;;;7.90;99.90;;;;;;10433867;28;20801;-70
2023/01/15 14:58:57;;;;;;;4.90;1.30;;;7.90;99.90;;;;;;10431614;28;20715;-72
2023/01/15 15:04:03;;;;;;;4.93;0.93;;;7.80;99.90;;;;;;10434971;28;20303;-75
2023/01/15 15:09:04;;;;;;;4.23;1.00;;;7.90;99.90;;;;;;10428701;28;20214;-73
2023/01/15 15:14:07;;;;;;;3.83;0.83;;;7.80;99.90;;;;;;10431594;28;20769;-74
2023/01/15 15:19:34;;;;;;;2.83;0.93;;;7.80;99.90;;;;;;10430734;28;20225;-73
2023/01/15 15:24:41;;;;;;;3.60;0.93;;;7.90;99.90;;;;;;10434849;28;20212;-72
2023/01/15 15:29:42;;;;;;;3.27;1.33;;;7.90;99.90;;;;;;10429805;28;20291;-70
2023/01/15 15:34:47;;;;;;;5.63;0.87;;;7.80;99.90;;;;;;10431799;28;20221;-70
2023/01/15 15:40:15;;;;;;;4.70;0.93;;;7.70;99.90;;;;;;10425821;28;20556;-69
2023/01/15 15:50:46;;;;;;;4.07;1.00;;;7.50;99.90;;;;;;10424401;28;20222;-70
2023/01/15 15:55:47;;;;;;;3.37;1.17;;;7.40;99.90;;;;;;10437368;28;20220;-71
2023/01/15 16:00:49;;;;;;;1.20;0.50;;;7.40;99.90;;;;;;10435124;28;20216;-72
2023/01/15 16:06:00;;;;;;;3.53;1.00;;;7.40;99.90;;;;;;10435270;28;20230;-72
2023/01/15 16:11:05;;;;;;;3.80;1.00;;;7.30;99.90;;;;;;10436829;28;20216;-71
2023/01/15 16:16:07;;;;;;;4.03;1.00;;;7.40;99.90;;;;;;10422424;28;20220;-70
2023/01/15 16:21:14;;;;;;;7.77;2.10;;;7.40;99.90;;;;;;10437307;28;20224;-74
2023/01/15 16:26:20;;;;;;;4.83;1.50;;;7.40;99.90;;;;;;10450788;28;20730;-74
2023/01/15 16:31:21;;;;;;;3.13;1.30;;;7.20;99.90;;;;;;10443541;28;20230;-70
2023/01/15 16:41:41;;;;;;;2.77;1.00;;;6.80;99.90;;;;;;10594450;22;20538;-70
2023/01/15 16:46:52;;;;;;;2.93;1.37;;;6.60;99.90;;;;;;10340605;28;20490;-73
2023/01/15 16:51:58;;;;;;;2.20;0.90;;;6.50;99.90;;;;;;10343230;28;20217;-74
2023/01/15 16:57:27;;;;;;;5.63;1.30;;;6.50;99.90;;;;;;10336028;28;20236;-77
2023/01/15 17:02:49;;;;;;;5.93;1.10;;;6.40;99.90;;;;;;10326436;28;20216;-75
2023/01/15 17:07:53;;;;;;;2.10;0.80;;;6.40;99.90;;;;;;10327291;28;20311;-76
2023/01/15 17:12:57;;;;;;;4.93;1.60;;;6.40;99.90;;;;;;10330076;28;20828;-74
2023/01/15 17:18:18;;;;;;;3.83;1.47;;;6.40;99.90;;;;;;10353405;28;20234;-77
2023/01/15 17:23:24;;;;;;;4.70;1.30;;;6.40;99.90;;;;;;10348556;28;20877;-73
2023/01/15 17:28:25;;;;;;;3.63;1.30;;;6.50;99.90;;;;;;10324113;28;20224;-74
2023/01/15 17:33:25;;;;;;;2.20;0.93;;;6.50;99.90;;;;;;10331112;28;20261;-75
2023/01/15 17:38:26;;;;;;;2.73;1.20;;;6.50;99.90;;;;;;10344795;28;20232;-73
2023/01/15 17:43:27;;;;;;;5.13;1.60;;;6.60;99.90;;;;;;10347741;28;20221;-73
2023/01/15 17:48:27;;;;;;;2.83;1.20;;;6.60;99.90;;;;;;10342660;28;20221;-75
2023/01/15 17:53:29;;;;;;;4.77;1.30;;;6.60;99.90;;;;;;10347959;28;20230;-75
2023/01/15 18:09:12;;;;;;;5.13;2.00;;;6.60;99.90;;;;;;10350401;28;20819;-75
2023/01/15 18:14:13;;;;;;;3.40;1.50;;;6.60;99.90;;;;;;10347431;28;20299;-74
2023/01/15 18:19:13;;;;;;;5.37;1.50;;;6.70;99.90;;;;;;10341653;28;20213;-74
2023/01/15 18:24:15;;;;;;;6.37;1.70;;;6.70;99.90;;;;;;10344399;28;20207;-74
2023/01/15 18:29:16;;;;;;;3.90;1.70;;;6.70;99.90;;;;;;10343378;28;20743;-74
2023/01/15 18:34:17;;;;;;;4.30;1.67;;;6.70;99.90;;;;;;10328028;28;20236;-75
2023/01/15 18:39:17;;;;;;;4.00;1.50;;;6.70;99.90;;;;;;10353406;28;20279;-78
2023/01/15 18:49:43;;;;;;;4.20;1.30;;;6.70;99.90;;;;;;10347299;28;20226;-76
2023/01/15 18:54:43;;;;;;;4.83;1.57;;;6.70;99.90;;;;;;10335168;28;20220;-78
2023/01/15 18:59:46;;;;;;;3.17;1.37;;;6.70;99.90;;;;;;10352591;28;20225;-76
2023/01/15 19:04:47;;;;;;;4.93;1.83;;;6.80;99.90;;;;;;10328327;28;20263;-75
2023/01/15 19:09:47;;;;;;;6.53;2.80;;;6.80;99.90;;;;;;10326537;28;20256;-74
2023/01/15 19:20:27;;;;;;;4.87;1.50;;;6.90;99.90;;;;;;10157006;29;20238;-75
2023/01/15 19:25:39;;;;;;;3.23;1.33;;;6.90;99.90;;;;;;10298202;28;20261;-76
2023/01/15 19:30:39;;;;;;;3.77;1.50;;;6.90;99.90;;;;;;10354996;28;20228;-76
2023/01/15 19:35:40;;;;;;;3.77;1.40;;;6.90;99.90;;;;;;10360955;28;20228;-74
2023/01/15 19:40:40;;;;;;;3.73;1.20;;;7.00;99.90;;;;;;10357102;28;20264;-74
2023/01/15 19:51:06;;;;;;;4.20;1.93;;;6.90;99.90;;;;;;10351831;28;20767;-73
2023/01/15 19:56:07;;;;;;;5.40;1.37;;;6.90;99.90;;;;;;10345734;28;20320;-74
2023/01/15 20:01:14;;;;;;;3.73;1.60;;;6.80;99.90;;;;;;10344906;28;20216;-74
2023/01/15 20:06:15;;;;;;;4.40;1.40;;;6.80;99.90;;;;;;10343882;28;20222;-75
2023/01/15 20:11:15;;;;;;;5.70;1.57;;;6.80;99.90;;;;;;10354224;28;20221;-74
2023/01/15 20:16:18;;;;;;;10.80;1.87;;;6.80;99.90;;;;;;10343786;28;20595;-74
2023/01/15 20:21:18;;;;;;;4.57;1.50;;;6.80;99.90;;;;;;10348648;28;20767;-74
2023/01/15 20:26:23;;;;;;;3.00;1.93;;;6.70;99.90;;;;;;10349344;28;20213;-75
2023/01/15 20:31:24;;;;;;;5.57;1.93;;;6.60;99.90;;;;;;10339230;28;20225;-74
2023/01/15 20:36:25;;;;;;;3.83;1.23;;;6.50;99.90;;;;;;10333352;28;20225;-73
2023/01/15 20:46:46;;;;;;;2.23;1.03;;;6.50;99.90;;;;;;10342254;28;20685;-76
2023/01/15 20:51:46;;;;;;;5.40;1.70;;;6.50;99.90;;;;;;10353778;28;20242;-74
2023/01/15 20:56:47;;;;;;;1.90;1.23;;;6.50;99.90;;;;;;10346187;28;20283;-74
2023/01/15 21:01:50;;;;;;;5.73;1.60;;;6.50;99.90;;;;;;10344569;28;20301;-74
2023/01/15 21:06:50;;;;;;;5.00;1.40;;;6.40;99.90;;;;;;10345990;28;20218;-75
2023/01/15 21:11:52;;;;;;;5.30;1.70;;;6.40;99.90;;;;;;10354702;28;20608;-75
2023/01/15 21:16:52;;;;;;;6.70;1.80;;;6.50;99.90;;;;;;10345289;28;20229;-74
2023/01/15 21:21:53;;;;;;;5.90;1.90;;;6.50;99.90;;;;;;10348234;28;20225;-75
2023/01/15 21:26:55;;;;;;;5.10;1.70;;;6.50;99.90;;;;;;10343969;28;20222;-74
2023/01/15 21:31:55;;;;;;;3.60;1.93;;;6.50;99.90;;;;;;10358061;28;20229;-75
2023/01/15 21:36:56;;;;;;;4.20;1.47;;;6.50;99.90;;;;;;10341201;28;20229;-74
2023/01/15 21:47:19;;;;;;;3.43;1.40;;;6.50;99.90;;;;;;10337821;28;20684;-77
2023/01/15 21:52:23;;;;;;;4.30;1.83;;;6.50;99.90;;;;;;10354392;28;20777;-74
2023/01/15 21:57:23;;;;;;;4.60;1.47;;;6.50;99.90;;;;;;10336649;28;20284;-71
2023/01/15 22:02:26;;;;;;;5.80;1.60;;;6.50;99.90;;;;;;10367302;28;20267;-69
2023/01/15 22:07:27;;;;;;;3.90;1.37;;;6.50;99.90;;;;;;10343309;28;20570;-69
2023/01/15 22:12:41;;;;;;;4.47;1.63;;;6.50;99.90;;;;;;10346140;28;20218;-77
2023/01/15 22:17:42;;;;;;;8.70;1.40;;;6.50;99.90;;;;;;10338925;28;20234;-73
2023/01/15 22:22:43;;;;;;;3.57;1.30;;;6.50;99.90;;;;;;10361769;28;20225;-73
2023/01/15 22:27:44;;;;;;;4.53;1.60;;;6.50;99.90;;;;;;10353247;28;20316;-72
2023/01/15 22:32:45;;;;;;;2.90;1.37;;;6.50;99.90;;;;;;10355852;28;20387;-72
2023/01/15 22:37:45;;;;;;;5.43;1.30;;;6.50;99.90;;;;;;10351469;28;20222;-72
2023/01/15 22:42:46;;;;;;;4.77;1.50;;;6.50;99.90;;;;;;10358940;28;20219;-71
2023/01/15 22:47:46;;;;;;;4.30;1.50;;;6.50;99.90;;;;;;10352697;28;20309;-74
2023/01/15 22:52:47;;;;;;;3.83;1.37;;;6.50;99.90;;;;;;10333561;28;20226;-72
2023/01/15 22:57:47;;;;;;;4.33;1.77;;;6.50;99.90;;;;;;10349004;28;20251;-71
2023/01/15 23:02:54;;;;;;;1.83;1.13;;;6.40;99.90;;;;;;10353489;28;20308;-72
2023/01/15 23:07:56;;;;;;;2.73;1.20;;;6.30;99.90;;;;;;10337933;28;20229;-71
2023/01/15 23:12:56;;;;;;;3.60;1.40;;;6.30;99.90;;;;;;10361905;28;20233;-73
2023/01/15 23:17:57;;;;;;;3.20;0.97;;;6.30;99.90;;;;;;10346174;28;20248;-72
2023/01/15 23:22:58;;;;;;;4.07;1.17;;;6.30;99.90;;;;;;10350390;28;20229;-72
2023/01/15 23:27:59;;;;;;;3.90;1.40;;;6.30;99.90;;;;;;10354757;28;20217;-71
2023/01/15 23:32:59;;;;;;;4.20;1.10;;;6.30;99.90;;;;;;10358639;28;20229;-72
2023/01/15 23:38:00;;;;;;;4.33;1.40;;;6.30;99.90;;;;;;10345275;28;20715;-71
2023/01/15 23:48:20;;;;;;;4.43;1.10;;;6.20;99.90;;;;;;10347938;28;20222;-70
2023/01/15 23:53:20;;;;;;;3.67;1.30;;;6.20;99.90;;;;;;10351593;28;20226;-73
2023/01/15 23:58:21;;;;;;;5.43;1.30;;;6.10;99.90;;;;;;10342911;28;20234;-75
